sensor_id;sensor_type;location;lat;lon;timestamp;pressure;altitude;pressure_sealevel;temperature;humidity
63399;BME280;49533;-34.520;150.798;2023-09-19T00:00:48;100404.19;;;28.62;23.10
63399;BME280;49533;-34.520;150.798;2023-09-19T00:03:16;100389.00;;;28.63;22.93
63399;BME280;49533;-34.520;150.798;2023-09-19T00:05:43;100388.75;;;28.74;23.19
63399;BME280;49533;-34.520;150.798;2023-09-19T00:08:10;100339.94;;;28.42;22.83
63399;BME280;49533;-34.520;150.798;2023-09-19T00:10:39;100382.13;;;28.84;22.98
63399;BME280;49533;-34.520;150.798;2023-09-19T00:13:09;100372.31;;;28.76;22.75
63399;BME280;49533;-34.520;150.798;2023-09-19T00:15:42;100377.06;;;28.95;22.52
63399;BME280;49533;-34.520;150.798;2023-09-19T00:18:09;100345.06;;;28.80;22.57
63399;BME280;49533;-34.520;150.798;2023-09-19T00:20:38;100379.22;;;29.04;22.70
63399;BME280;49533;-34.520;150.798;2023-09-19T00:23:05;100326.88;;;28.88;22.63
63399;BME280;49533;-34.520;150.798;2023-09-19T00:25:35;100369.47;;;29.12;22.40
63399;BME280;49533;-34.520;150.798;2023-09-19T00:28:04;100367.00;;;29.14;22.16
63399;BME280;49533;-34.520;150.798;2023-09-19T00:30:36;100330.28;;;28.96;21.95
63399;BME280;49533;-34.520;150.798;2023-09-19T00:33:04;100319.09;;;28.96;21.98
63399;BME280;49533;-34.520;150.798;2023-09-19T00:35:34;100292.81;;;28.93;22.06
63399;BME280;49533;-34.520;150.798;2023-09-19T00:38:03;100353.78;;;29.31;22.06
63399;BME280;49533;-34.520;150.798;2023-09-19T00:40:30;100339.25;;;29.36;22.01
63399;BME280;49533;-34.520;150.798;2023-09-19T00:42:59;100308.53;;;29.20;21.84
63399;BME280;49533;-34.520;150.798;2023-09-19T00:45:33;100334.69;;;29.42;21.63
63399;BME280;49533;-34.520;150.798;2023-09-19T00:48:05;100332.16;;;29.48;21.55
63399;BME280;49533;-34.520;150.798;2023-09-19T00:50:35;100313.53;;;29.41;21.82
63399;BME280;49533;-34.520;150.798;2023-09-19T00:53:03;100256.88;;;29.08;21.45
63399;BME280;49533;-34.520;150.798;2023-09-19T00:55:35;100325.03;;;29.60;21.37
63399;BME280;49533;-34.520;150.798;2023-09-19T00:58:03;100323.69;;;29.64;21.36
63399;BME280;49533;-34.520;150.798;2023-09-19T01:00:34;100306.84;;;29.52;21.19
63399;BME280;49533;-34.520;150.798;2023-09-19T01:03:01;100268.06;;;29.37;21.47
63399;BME280;49533;-34.520;150.798;2023-09-19T01:05:29;100322.28;;;29.73;21.08
63399;BME280;49533;-34.520;150.798;2023-09-19T01:07:56;100322.97;;;29.77;21.12
63399;BME280;49533;-34.520;150.798;2023-09-19T01:10:23;100305.94;;;29.71;21.16
63399;BME280;49533;-34.520;150.798;2023-09-19T01:18:27;100307.31;;;29.92;20.95
63399;BME280;49533;-34.520;150.798;2023-09-19T01:21:22;100319.19;;;29.96;21.08
63399;BME280;49533;-34.520;150.798;2023-09-19T01:29:41;100298.59;;;30.03;20.74
63399;BME280;49533;-34.520;150.798;2023-09-19T01:32:13;100247.03;;;29.75;20.85
63399;BME280;49533;-34.520;150.798;2023-09-19T01:34:50;100243.34;;;29.78;20.69
63399;BME280;49533;-34.520;150.798;2023-09-19T01:37:20;100228.56;;;29.77;20.83
63399;BME280;49533;-34.520;150.798;2023-09-19T01:42:44;100274.16;;;30.16;20.70
63399;BME280;49533;-34.520;150.798;2023-09-19T01:45:59;100259.50;;;30.12;19.96
63399;BME280;49533;-34.520;150.798;2023-09-19T01:51:41;100263.09;;;30.38;19.96
63399;BME280;49533;-34.520;150.798;2023-09-19T01:54:18;100243.84;;;30.27;19.54
63399;BME280;49533;-34.520;150.798;2023-09-19T01:59:50;100235.53;;;30.37;19.73
63399;BME280;49533;-34.520;150.798;2023-09-19T02:02:20;100211.78;;;30.28;19.95
63399;BME280;49533;-34.520;150.798;2023-09-19T02:04:49;100204.91;;;30.17;20.01
63399;BME280;49533;-34.520;150.798;2023-09-19T02:07:17;100228.03;;;30.33;19.70
63399;BME280;49533;-34.520;150.798;2023-09-19T02:09:44;100215.81;;;30.27;20.02
63399;BME280;49533;-34.520;150.798;2023-09-19T02:12:11;100197.97;;;30.21;19.81
63399;BME280;49533;-34.520;150.798;2023-09-19T02:14:39;100170.88;;;30.05;19.92
63399;BME280;49533;-34.520;150.798;2023-09-19T02:17:07;100172.97;;;30.14;20.24
63399;BME280;49533;-34.520;150.798;2023-09-19T02:19:37;100164.25;;;30.12;19.86
63399;BME280;49533;-34.520;150.798;2023-09-19T02:22:09;100190.03;;;30.32;20.17
63399;BME280;49533;-34.520;150.798;2023-09-19T02:24:37;100209.16;;;30.47;20.40
63399;BME280;49533;-34.520;150.798;2023-09-19T02:27:05;100186.97;;;30.40;20.53
63399;BME280;49533;-34.520;150.798;2023-09-19T02:29:33;100203.88;;;30.49;20.32
63399;BME280;49533;-34.520;150.798;2023-09-19T02:32:01;100174.53;;;30.41;20.42
63399;BME280;49533;-34.520;150.798;2023-09-19T02:34:28;100134.00;;;30.07;20.25
63399;BME280;49533;-34.520;150.798;2023-09-19T02:36:56;100157.03;;;30.37;20.63
63399;BME280;49533;-34.520;150.798;2023-09-19T02:39:23;100170.25;;;30.49;20.08
63399;BME280;49533;-34.520;150.798;2023-09-19T02:41:50;100138.34;;;30.33;19.99
63399;BME280;49533;-34.520;150.798;2023-09-19T02:44:17;100135.34;;;30.28;20.41
63399;BME280;49533;-34.520;150.798;2023-09-19T02:46:46;100156.22;;;30.49;20.46
63399;BME280;49533;-34.520;150.798;2023-09-19T02:49:16;100128.25;;;30.36;19.88
63399;BME280;49533;-34.520;150.798;2023-09-19T02:51:46;100109.81;;;30.48;19.50
63399;BME280;49533;-34.520;150.798;2023-09-19T02:54:13;100150.94;;;30.86;20.31
63399;BME280;49533;-34.520;150.798;2023-09-19T02:56:42;100132.91;;;30.87;20.19
63399;BME280;49533;-34.520;150.798;2023-09-19T02:59:09;100145.59;;;31.01;19.91
63399;BME280;49533;-34.520;150.798;2023-09-19T03:01:37;100148.34;;;31.13;19.60
63399;BME280;49533;-34.520;150.798;2023-09-19T03:04:07;100081.31;;;30.84;19.33
63399;BME280;49533;-34.520;150.798;2023-09-19T03:06:34;100120.34;;;31.23;19.22
63399;BME280;49533;-34.520;150.798;2023-09-19T03:09:01;100058.47;;;30.95;19.71
63399;BME280;49533;-34.520;150.798;2023-09-19T03:11:32;100091.81;;;31.24;19.13
63399;BME280;49533;-34.520;150.798;2023-09-19T03:13:59;100108.25;;;31.35;18.44
63399;BME280;49533;-34.520;150.798;2023-09-19T03:16:26;100117.69;;;31.50;18.40
63399;BME280;49533;-34.520;150.798;2023-09-19T03:18:59;100070.59;;;31.23;18.49
63399;BME280;49533;-34.520;150.798;2023-09-19T03:21:26;100105.25;;;31.60;18.46
63399;BME280;49533;-34.520;150.798;2023-09-19T03:23:55;100111.81;;;31.67;18.48
63399;BME280;49533;-34.520;150.798;2023-09-19T03:26:23;100101.25;;;31.71;18.79
63399;BME280;49533;-34.520;150.798;2023-09-19T03:28:53;100092.66;;;31.74;18.89
63399;BME280;49533;-34.520;150.798;2023-09-19T03:31:20;100036.56;;;31.43;18.21
63399;BME280;49533;-34.520;150.798;2023-09-19T03:33:50;100088.31;;;31.82;18.44
63399;BME280;49533;-34.520;150.798;2023-09-19T03:36:17;100083.34;;;31.87;19.08
63399;BME280;49533;-34.520;150.798;2023-09-19T03:38:45;100049.44;;;31.72;18.48
63399;BME280;49533;-34.520;150.798;2023-09-19T03:41:12;100029.91;;;31.59;18.02
63399;BME280;49533;-34.520;150.798;2023-09-19T03:43:40;100071.84;;;31.94;18.66
63399;BME280;49533;-34.520;150.798;2023-09-19T03:46:07;100061.69;;;31.96;18.46
63399;BME280;49533;-34.520;150.798;2023-09-19T03:48:34;100039.50;;;31.89;18.05
63399;BME280;49533;-34.520;150.798;2023-09-19T03:51:01;99991.25;;;31.63;18.36
63399;BME280;49533;-34.520;150.798;2023-09-19T03:53:28;100021.69;;;31.83;18.59
63399;BME280;49533;-34.520;150.798;2023-09-19T03:55:56;100064.50;;;32.05;18.64
63399;BME280;49533;-34.520;150.798;2023-09-19T03:58:23;100021.09;;;31.88;18.19
63399;BME280;49533;-34.520;150.798;2023-09-19T04:00:52;100043.28;;;32.14;17.67
63399;BME280;49533;-34.520;150.798;2023-09-19T04:03:21;99992.50;;;31.90;18.00
63399;BME280;49533;-34.520;150.798;2023-09-19T04:05:48;100019.84;;;32.08;18.17
63399;BME280;49533;-34.520;150.798;2023-09-19T04:08:15;99975.03;;;31.76;17.88
63399;BME280;49533;-34.520;150.798;2023-09-19T04:10:43;100020.19;;;32.19;17.90
63399;BME280;49533;-34.520;150.798;2023-09-19T04:13:11;100015.34;;;32.19;18.11
63399;BME280;49533;-34.520;150.798;2023-09-19T04:15:38;99981.78;;;31.97;18.25
63399;BME280;49533;-34.520;150.798;2023-09-19T04:18:06;99996.28;;;32.14;18.58
63399;BME280;49533;-34.520;150.798;2023-09-19T04:20:33;99980.81;;;32.00;18.23
63399;BME280;49533;-34.520;150.798;2023-09-19T04:23:00;100015.50;;;32.25;18.09
63399;BME280;49533;-34.520;150.798;2023-09-19T04:25:27;99927.44;;;31.73;18.10
63399;BME280;49533;-34.520;150.798;2023-09-19T04:27:54;100012.38;;;32.32;18.43
63399;BME280;49533;-34.520;150.798;2023-09-19T04:30:22;100001.72;;;32.36;17.41
63399;BME280;49533;-34.520;150.798;2023-09-19T04:32:51;99965.53;;;32.20;17.42
63399;BME280;49533;-34.520;150.798;2023-09-19T04:35:19;99978.63;;;32.32;17.32
63399;BME280;49533;-34.520;150.798;2023-09-19T04:37:47;99979.25;;;32.36;16.61
63399;BME280;49533;-34.520;150.798;2023-09-19T04:40:14;99980.00;;;32.46;17.06
63399;BME280;49533;-34.520;150.798;2023-09-19T04:42:56;99970.19;;;32.41;16.59
63399;BME280;49533;-34.520;150.798;2023-09-19T04:45:24;99967.72;;;32.34;16.96
63399;BME280;49533;-34.520;150.798;2023-09-19T04:47:51;99937.88;;;32.27;16.73
63399;BME280;49533;-34.520;150.798;2023-09-19T04:50:18;99983.78;;;32.52;16.43
63399;BME280;49533;-34.520;150.798;2023-09-19T04:52:50;99975.50;;;32.48;16.79
63399;BME280;49533;-34.520;150.798;2023-09-19T04:55:18;99947.09;;;32.28;17.29
63399;BME280;49533;-34.520;150.798;2023-09-19T04:57:50;99971.13;;;32.38;17.63
63399;BME280;49533;-34.520;150.798;2023-09-19T05:00:20;99959.28;;;32.34;17.61
63399;BME280;49533;-34.520;150.798;2023-09-19T05:02:51;99928.09;;;32.14;17.87
63399;BME280;49533;-34.520;150.798;2023-09-19T05:05:18;99960.38;;;32.27;17.53
63399;BME280;49533;-34.520;150.798;2023-09-19T05:07:46;99933.25;;;32.06;18.01
63399;BME280;49533;-34.520;150.798;2023-09-19T05:10:13;99965.84;;;32.22;18.24
63399;BME280;49533;-34.520;150.798;2023-09-19T05:12:41;99910.59;;;31.91;17.78
63399;BME280;49533;-34.520;150.798;2023-09-19T05:15:11;99929.34;;;31.94;18.42
63399;BME280;49533;-34.520;150.798;2023-09-19T05:17:38;99925.09;;;31.90;17.93
63399;BME280;49533;-34.520;150.798;2023-09-19T05:20:06;99929.94;;;31.89;18.09
63399;BME280;49533;-34.520;150.798;2023-09-19T05:22:43;99927.75;;;31.84;18.20
63399;BME280;49533;-34.520;150.798;2023-09-19T05:25:12;99952.41;;;32.08;18.63
63399;BME280;49533;-34.520;150.798;2023-09-19T05:27:44;99941.34;;;31.95;18.26
63399;BME280;49533;-34.520;150.798;2023-09-19T05:30:12;99957.44;;;32.03;18.52
63399;BME280;49533;-34.520;150.798;2023-09-19T05:32:41;99950.25;;;32.02;18.70
63399;BME280;49533;-34.520;150.798;2023-09-19T05:35:09;99958.34;;;32.00;18.60
63399;BME280;49533;-34.520;150.798;2023-09-19T05:37:36;99960.06;;;31.98;18.17
63399;BME280;49533;-34.520;150.798;2023-09-19T05:40:04;99923.38;;;31.74;18.58
63399;BME280;49533;-34.520;150.798;2023-09-19T05:42:35;99965.41;;;31.96;18.33
63399;BME280;49533;-34.520;150.798;2023-09-19T05:45:04;99963.03;;;31.94;18.77
63399;BME280;49533;-34.520;150.798;2023-09-19T05:47:32;99935.41;;;31.83;18.38
63399;BME280;49533;-34.520;150.798;2023-09-19T05:50:00;99939.75;;;31.84;18.56
63399;BME280;49533;-34.520;150.798;2023-09-19T05:52:29;99922.59;;;31.73;18.17
63399;BME280;49533;-34.520;150.798;2023-09-19T05:54:56;99919.31;;;31.66;18.33
63399;BME280;49533;-34.520;150.798;2023-09-19T05:57:23;99930.72;;;31.71;18.52
63399;BME280;49533;-34.520;150.798;2023-09-19T05:59:51;99941.78;;;31.75;18.82
63399;BME280;49533;-34.520;150.798;2023-09-19T06:02:18;99944.91;;;31.77;18.66
63399;BME280;49533;-34.520;150.798;2023-09-19T06:04:46;99904.03;;;31.48;18.44
63399;BME280;49533;-34.520;150.798;2023-09-19T06:07:15;99956.47;;;31.79;17.41
63399;BME280;49533;-34.520;150.798;2023-09-19T06:09:42;99878.75;;;31.48;17.67
63399;BME280;49533;-34.520;150.798;2023-09-19T06:12:09;99937.09;;;31.90;18.02
63399;BME280;49533;-34.520;150.798;2023-09-19T06:14:39;99962.09;;;32.16;17.86
63399;BME280;49533;-34.520;150.798;2023-09-19T06:17:06;99948.97;;;32.13;17.15
63399;BME280;49533;-34.520;150.798;2023-09-19T06:19:33;99943.53;;;32.09;17.16
63399;BME280;49533;-34.520;150.798;2023-09-19T06:22:01;99934.63;;;32.11;17.10
63399;BME280;49533;-34.520;150.798;2023-09-19T06:24:28;99976.91;;;32.35;17.57
63399;BME280;49533;-34.520;150.798;2023-09-19T06:26:55;99962.53;;;32.33;17.13
63399;BME280;49533;-34.520;150.798;2023-09-19T06:29:22;99973.28;;;32.43;17.45
63399;BME280;49533;-34.520;150.798;2023-09-19T06:31:52;99982.03;;;32.45;16.86
63399;BME280;49533;-34.520;150.798;2023-09-19T06:34:22;99969.88;;;32.39;17.00
63399;BME280;49533;-34.520;150.798;2023-09-19T06:36:49;99935.88;;;32.19;16.87
63399;BME280;49533;-34.520;150.798;2023-09-19T06:39:18;99962.06;;;32.43;16.77
63399;BME280;49533;-34.520;150.798;2023-09-19T06:41:45;99975.34;;;32.52;16.38
63399;BME280;49533;-34.520;150.798;2023-09-19T06:44:12;99958.31;;;32.37;16.63
63399;BME280;49533;-34.520;150.798;2023-09-19T06:46:39;99977.69;;;32.54;16.76
63399;BME280;49533;-34.520;150.798;2023-09-19T06:49:08;99960.66;;;32.39;17.25
63399;BME280;49533;-34.520;150.798;2023-09-19T06:51:37;99947.22;;;32.34;17.31
63399;BME280;49533;-34.520;150.798;2023-09-19T06:54:04;99973.63;;;32.45;17.04
63399;BME280;49533;-34.520;150.798;2023-09-19T06:56:31;99936.16;;;32.21;17.17
63399;BME280;49533;-34.520;150.798;2023-09-19T06:58:59;99918.84;;;32.13;17.47
63399;BME280;49533;-34.520;150.798;2023-09-19T07:01:26;99952.41;;;32.26;17.19
63399;BME280;49533;-34.520;150.798;2023-09-19T07:03:54;99992.03;;;32.46;17.15
63399;BME280;49533;-34.520;150.798;2023-09-19T07:06:21;99986.75;;;32.39;17.13
63399;BME280;49533;-34.520;150.798;2023-09-19T07:08:48;99943.38;;;32.13;17.15
63399;BME280;49533;-34.520;150.798;2023-09-19T07:11:16;99994.56;;;32.35;17.79
63399;BME280;49533;-34.520;150.798;2023-09-19T07:13:47;99999.09;;;32.33;17.79
63399;BME280;49533;-34.520;150.798;2023-09-19T07:16:14;100007.38;;;32.27;18.30
63399;BME280;49533;-34.520;150.798;2023-09-19T07:18:53;100008.47;;;32.20;17.80
63399;BME280;49533;-34.520;150.798;2023-09-19T07:21:21;99978.81;;;32.01;17.32
63399;BME280;49533;-34.520;150.798;2023-09-19T07:23:48;99986.31;;;32.04;17.28
63399;BME280;49533;-34.520;150.798;2023-09-19T07:26:16;100018.47;;;32.21;17.75
63399;BME280;49533;-34.520;150.798;2023-09-19T07:28:43;100017.66;;;32.21;17.53
63399;BME280;49533;-34.520;150.798;2023-09-19T07:31:10;99968.66;;;31.94;17.31
63399;BME280;49533;-34.520;150.798;2023-09-19T07:33:39;99934.13;;;31.66;17.23
63399;BME280;49533;-34.520;150.798;2023-09-19T07:36:10;100017.66;;;32.21;17.31
63399;BME280;49533;-34.520;150.798;2023-09-19T07:38:40;100013.94;;;32.15;17.52
63399;BME280;49533;-34.520;150.798;2023-09-19T07:41:08;100018.31;;;32.07;17.53
63399;BME280;49533;-34.520;150.798;2023-09-19T07:43:38;99990.97;;;31.89;17.66
63399;BME280;49533;-34.520;150.798;2023-09-19T07:46:07;100030.16;;;32.11;17.81
63399;BME280;49533;-34.520;150.798;2023-09-19T07:48:38;100027.06;;;32.09;17.76
63399;BME280;49533;-34.520;150.798;2023-09-19T07:51:07;100027.97;;;32.05;17.75
63399;BME280;49533;-34.520;150.798;2023-09-19T07:53:35;99990.78;;;31.74;17.75
63399;BME280;49533;-34.520;150.798;2023-09-19T07:56:08;100033.75;;;32.02;17.60
63399;BME280;49533;-34.520;150.798;2023-09-19T07:58:38;100030.16;;;32.01;17.92
63399;BME280;49533;-34.520;150.798;2023-09-19T08:01:08;100005.63;;;31.83;17.68
63399;BME280;49533;-34.520;150.798;2023-09-19T08:03:40;99989.84;;;31.77;17.29
63399;BME280;49533;-34.520;150.798;2023-09-19T08:06:08;99983.91;;;31.66;18.19
63399;BME280;49533;-34.520;150.798;2023-09-19T08:08:37;100022.78;;;31.86;17.91
63399;BME280;49533;-34.520;150.798;2023-09-19T08:11:07;99997.94;;;31.66;18.11
63399;BME280;49533;-34.520;150.798;2023-09-19T08:13:42;100035.75;;;31.92;18.61
63399;BME280;49533;-34.520;150.798;2023-09-19T08:16:17;100042.63;;;31.91;18.38
63399;BME280;49533;-34.520;150.798;2023-09-19T08:18:49;100036.19;;;31.81;18.17
63399;BME280;49533;-34.520;150.798;2023-09-19T08:21:22;100039.94;;;31.88;18.90
63399;BME280;49533;-34.520;150.798;2023-09-19T08:23:50;100001.38;;;31.60;18.69
63399;BME280;49533;-34.520;150.798;2023-09-19T08:26:17;100045.72;;;31.84;18.50
63399;BME280;49533;-34.520;150.798;2023-09-19T08:28:45;100024.78;;;31.67;18.20
63399;BME280;49533;-34.520;150.798;2023-09-19T08:31:13;100050.25;;;31.81;18.58
63399;BME280;49533;-34.520;150.798;2023-09-19T08:33:40;100008.38;;;31.56;18.87
63399;BME280;49533;-34.520;150.798;2023-09-19T08:36:07;100037.88;;;31.70;18.34
63399;BME280;49533;-34.520;150.798;2023-09-19T08:38:36;100047.59;;;31.78;18.15
63399;BME280;49533;-34.520;150.798;2023-09-19T08:41:07;100011.78;;;31.51;18.29
63399;BME280;49533;-34.520;150.798;2023-09-19T08:43:35;100036.94;;;31.63;18.71
63399;BME280;49533;-34.520;150.798;2023-09-19T08:46:15;100045.84;;;31.71;18.79
63399;BME280;49533;-34.520;150.798;2023-09-19T08:48:54;100001.78;;;31.40;18.65
63399;BME280;49533;-34.520;150.798;2023-09-19T08:51:43;99981.88;;;31.16;18.48
63399;BME280;49533;-34.520;150.798;2023-09-19T08:54:31;100019.34;;;31.32;18.65
63399;BME280;49533;-34.520;150.798;2023-09-19T08:57:05;100015.44;;;31.29;18.58
63399;BME280;49533;-34.520;150.798;2023-09-19T08:59:40;100037.22;;;31.47;18.88
63399;BME280;49533;-34.520;150.798;2023-09-19T09:02:12;100057.03;;;31.53;18.85
63399;BME280;49533;-34.520;150.798;2023-09-19T09:04:45;100062.78;;;31.49;19.11
63399;BME280;49533;-34.520;150.798;2023-09-19T09:07:15;100060.44;;;31.48;18.63
63399;BME280;49533;-34.520;150.798;2023-09-19T09:09:45;100063.38;;;31.44;19.14
63399;BME280;49533;-34.520;150.798;2023-09-19T09:12:13;100057.16;;;31.40;19.06
63399;BME280;49533;-34.520;150.798;2023-09-19T09:14:46;100055.69;;;31.35;19.13
63399;BME280;49533;-34.520;150.798;2023-09-19T09:17:16;100045.16;;;31.17;19.02
63399;BME280;49533;-34.520;150.798;2023-09-19T09:19:47;100050.50;;;31.25;18.55
63399;BME280;49533;-34.520;150.798;2023-09-19T09:22:14;100053.16;;;31.28;19.23
63399;BME280;49533;-34.520;150.798;2023-09-19T09:24:56;100066.88;;;31.26;18.66
63399;BME280;49533;-34.520;150.798;2023-09-19T09:27:30;100055.28;;;31.15;19.26
63399;BME280;49533;-34.520;150.798;2023-09-19T09:30:00;100049.50;;;31.09;19.34
63399;BME280;49533;-34.520;150.798;2023-09-19T09:32:29;100065.59;;;31.18;18.92
63399;BME280;49533;-34.520;150.798;2023-09-19T09:35:01;100071.66;;;31.16;19.28
63399;BME280;49533;-34.520;150.798;2023-09-19T09:37:31;100031.28;;;30.83;18.94
63399;BME280;49533;-34.520;150.798;2023-09-19T09:40:03;100007.16;;;30.63;18.94
63399;BME280;49533;-34.520;150.798;2023-09-19T09:42:40;100065.31;;;30.94;18.94
63399;BME280;49533;-34.520;150.798;2023-09-19T09:45:21;100068.13;;;30.94;19.50
63399;BME280;49533;-34.520;150.798;2023-09-19T09:48:01;100085.25;;;30.96;19.53
63399;BME280;49533;-34.520;150.798;2023-09-19T09:50:47;100053.38;;;30.59;18.90
63399;BME280;49533;-34.520;150.798;2023-09-19T09:53:26;100079.75;;;30.70;19.21
63399;BME280;49533;-34.520;150.798;2023-09-19T09:56:06;100089.34;;;30.60;18.72
63399;BME280;49533;-34.520;150.798;2023-09-19T09:58:50;100076.50;;;30.50;19.36
63399;BME280;49533;-34.520;150.798;2023-09-19T10:01:27;100042.63;;;30.22;19.46
63399;BME280;49533;-34.520;150.798;2023-09-19T10:04:03;100068.94;;;30.38;19.34
63399;BME280;49533;-34.520;150.798;2023-09-19T10:06:46;99870.13;;;29.08;19.36
63399;BME280;49533;-34.520;150.798;2023-09-19T10:09:20;99766.16;;;28.23;19.35
63399;BME280;49533;-34.520;150.798;2023-09-19T10:12:28;99797.81;;;28.46;19.51
63399;BME280;49533;-34.520;150.798;2023-09-19T10:15:27;99750.63;;;28.22;19.56
63399;BME280;49533;-34.520;150.798;2023-09-19T10:18:11;100090.25;;;30.35;19.35
63399;BME280;49533;-34.520;150.798;2023-09-19T10:20:54;100094.03;;;30.41;19.70
63399;BME280;49533;-34.520;150.798;2023-09-19T10:23:22;100020.66;;;29.86;19.23
63399;BME280;49533;-34.520;150.798;2023-09-19T10:31:53;99712.03;;;27.79;19.57
63399;BME280;49533;-34.520;150.798;2023-09-19T10:34:29;100045.25;;;30.04;19.58
63399;BME280;49533;-34.520;150.798;2023-09-19T10:37:27;99702.66;;;27.72;19.41
63399;BME280;49533;-34.520;150.798;2023-09-19T10:39:59;99994.06;;;29.68;19.63
63399;BME280;49533;-34.520;150.798;2023-09-19T10:42:29;100066.50;;;30.14;19.84
63399;BME280;49533;-34.520;150.798;2023-09-19T10:44:58;100033.78;;;29.89;19.57
63399;BME280;49533;-34.520;150.798;2023-09-19T10:47:28;100078.97;;;30.13;20.06
63399;BME280;49533;-34.520;150.798;2023-09-19T10:50:06;100076.84;;;30.17;20.05
63399;BME280;49533;-34.520;150.798;2023-09-19T10:52:41;100084.56;;;30.13;19.83
63399;BME280;49533;-34.520;150.798;2023-09-19T10:55:09;100045.84;;;29.86;20.00
63399;BME280;49533;-34.520;150.798;2023-09-19T10:57:45;100048.91;;;29.92;20.01
63399;BME280;49533;-34.520;150.798;2023-09-19T11:00:14;100082.47;;;30.04;19.95
63399;BME280;49533;-34.520;150.798;2023-09-19T11:05:41;100066.13;;;29.90;20.18
63399;BME280;49533;-34.520;150.798;2023-09-19T11:08:09;100065.13;;;29.97;19.75
63399;BME280;49533;-34.520;150.798;2023-09-19T11:10:48;100045.31;;;29.78;19.80
63399;BME280;49533;-34.520;150.798;2023-09-19T11:13:27;100047.47;;;29.74;19.79
63399;BME280;49533;-34.520;150.798;2023-09-19T11:16:04;100075.44;;;29.87;19.99
63399;BME280;49533;-34.520;150.798;2023-09-19T11:27:11;100017.13;;;29.47;20.04
63399;BME280;49533;-34.520;150.798;2023-09-19T11:29:40;100051.16;;;29.71;20.30
63399;BME280;49533;-34.520;150.798;2023-09-19T11:32:08;100055.66;;;29.68;19.97
63399;BME280;49533;-34.520;150.798;2023-09-19T11:34:40;100060.91;;;29.66;20.24
63399;BME280;49533;-34.520;150.798;2023-09-19T11:40:06;100054.59;;;29.62;20.37
63399;BME280;49533;-34.520;150.798;2023-09-19T11:42:51;100032.22;;;29.50;20.31
63399;BME280;49533;-34.520;150.798;2023-09-19T11:48:19;100051.72;;;29.53;20.12
63399;BME280;49533;-34.520;150.798;2023-09-19T11:50:46;100037.75;;;29.40;20.39
63399;BME280;49533;-34.520;150.798;2023-09-19T11:53:15;100027.97;;;29.32;20.43
63399;BME280;49533;-34.520;150.798;2023-09-19T11:55:43;100025.19;;;29.32;20.62
63399;BME280;49533;-34.520;150.798;2023-09-19T11:58:14;100040.84;;;29.42;20.42
63399;BME280;49533;-34.520;150.798;2023-09-19T12:00:45;100032.13;;;29.40;20.40
63399;BME280;49533;-34.520;150.798;2023-09-19T12:03:13;100002.03;;;29.19;20.39
63399;BME280;49533;-34.520;150.798;2023-09-19T12:05:44;99999.44;;;29.12;20.29
63399;BME280;49533;-34.520;150.798;2023-09-19T12:08:15;100027.75;;;29.26;20.39
63399;BME280;49533;-34.520;150.798;2023-09-19T12:10:50;99987.44;;;28.98;20.66
63399;BME280;49533;-34.520;150.798;2023-09-19T12:13:18;100033.69;;;29.29;20.44
63399;BME280;49533;-34.520;150.798;2023-09-19T12:15:46;100009.06;;;29.11;20.50
63399;BME280;49533;-34.520;150.798;2023-09-19T12:18:29;100021.38;;;29.26;20.55
63399;BME280;49533;-34.520;150.798;2023-09-19T12:20:57;100012.66;;;29.24;20.36
63399;BME280;49533;-34.520;150.798;2023-09-19T12:23:25;99968.09;;;28.91;20.60
63399;BME280;49533;-34.520;150.798;2023-09-19T12:25:53;100011.19;;;29.19;20.46
63399;BME280;49533;-34.520;150.798;2023-09-19T12:28:27;99982.41;;;28.93;20.38
63399;BME280;49533;-34.520;150.798;2023-09-19T12:31:07;100008.66;;;29.12;20.70
63399;BME280;49533;-34.520;150.798;2023-09-19T12:33:54;100002.25;;;29.12;20.61
63399;BME280;49533;-34.520;150.798;2023-09-19T12:36:28;99900.25;;;28.36;20.75
63399;BME280;49533;-34.520;150.798;2023-09-19T12:39:02;99843.78;;;28.03;20.99
63399;BME280;49533;-34.520;150.798;2023-09-19T12:41:53;99746.25;;;27.41;20.86
63399;BME280;49533;-34.520;150.798;2023-09-19T12:44:36;99878.94;;;28.00;20.43
63399;BME280;49533;-34.520;150.798;2023-09-19T12:47:18;99518.22;;;25.86;20.81
63399;BME280;49533;-34.520;150.798;2023-09-19T12:50:13;99989.81;;;29.00;20.43
63399;BME280;49533;-34.520;150.798;2023-09-19T12:52:47;99978.28;;;28.98;20.46
63399;BME280;49533;-34.520;150.798;2023-09-19T12:55:31;99740.41;;;27.35;20.57
63399;BME280;49533;-34.520;150.798;2023-09-19T12:58:23;99968.97;;;28.88;20.58
63399;BME280;49533;-34.520;150.798;2023-09-19T13:00:56;99851.84;;;28.13;20.80
63399;BME280;49533;-34.520;150.798;2023-09-19T13:03:35;99711.69;;;27.22;20.63
63399;BME280;49533;-34.520;150.798;2023-09-19T13:06:34;99805.63;;;27.83;20.53
63399;BME280;49533;-34.520;150.798;2023-09-19T13:16:06;99550.66;;;25.93;20.60
63399;BME280;49533;-34.520;150.798;2023-09-19T13:19:34;99728.19;;;27.00;20.80
63399;BME280;49533;-34.520;150.798;2023-09-19T13:25:58;99458.75;;;25.47;20.60
63399;BME280;49533;-34.520;150.798;2023-09-19T13:28:52;99933.09;;;28.61;20.60
63399;BME280;49533;-34.520;150.798;2023-09-19T13:31:22;99478.91;;;25.68;20.66
63399;BME280;49533;-34.520;150.798;2023-09-19T13:40:14;99616.63;;;26.58;20.60
63399;BME280;49533;-34.520;150.798;2023-09-19T13:43:13;99565.44;;;26.06;20.45
63399;BME280;49533;-34.520;150.798;2023-09-19T13:48:52;99781.25;;;27.42;20.38